CheckWX is a tool to help pilots better visualize weather data.  It is not intended as a substitute for an official pre-flight weather briefing.

16:04:09 UTC

KJDD METAR
Wood County Airport
Mineola/Quitman, Texas, USA
Current

9 mins ago

KJDD 071555Z AUTO 00000KT 10SM CLR 10/05 A3033 RMK AO2
Observed
Dec-7 @ 15:55 UTC
Visibility
10 SM
Flight Rules
VFR
Cloud Levels
  • Clear skies
Temperature
10°C / 50°F
Dewpoint
C / 41°F
Humidity
71%
Altimeter
30.33" Hg
Pressure
1027.12 hPa
Previous

29 mins ago

KJDD 071535Z AUTO 00000KT 10SM CLR 08/04 A3033 RMK AO2
Observed
Dec-7 @ 15:35 UTC
Visibility
10 SM
Flight Rules
VFR
Cloud Levels
  • Clear skies
Temperature
C / 46°F
Dewpoint
C / 39°F
Humidity
76%
Altimeter
30.33" Hg
Pressure
1027.12 hPa
Previous

49 mins ago

KJDD 071515Z AUTO 00000KT 10SM CLR 08/03 A3033 RMK AO2
Observed
Dec-7 @ 15:15 UTC
Visibility
10 SM
Flight Rules
VFR
Cloud Levels
  • Clear skies
Temperature
C / 46°F
Dewpoint
C / 37°F
Humidity
71%
Altimeter
30.33" Hg
Pressure
1027.12 hPa